Time,TemperatureF,DewpointF,PressureIn,WindDirection,WindDirectionDegrees,WindSpeedMPH,WindSpeedGustMPH,Humidity,HourlyPrecipIn,Conditions,Clouds,dailyrainin,SoftwareType,DateUTC
2013-10-27 00:00:00,38.4,28.0,30.22,NW,315,1.0,-999.0,66,0.00,,,0.00,Wunderground v.1.15,2013-10-27 05:00:00,
2013-10-27 00:05:00,38.4,28.0,30.22,NW,315,1.0,-999.0,66,0.00,,,0.00,Wunderground v.1.15,2013-10-27 05:05:00,
2013-10-27 00:10:00,38.4,28.0,30.22,NW,315,1.0,-999.0,66,0.00,,,0.00,Wunderground v.1.15,2013-10-27 05:10:00,
2013-10-27 00:15:00,38.4,28.0,30.22,NW,315,1.0,-999.0,66,0.00,,,0.00,Wunderground v.1.15,2013-10-27 05:15:00,
2013-10-27 00:20:00,38.4,28.0,30.22,NW,315,1.0,-999.0,66,0.00,,,0.00,Wunderground v.1.15,2013-10-27 05:20:00,
2013-10-27 00:25:00,38.4,28.0,30.22,NW,315,1.0,-999.0,66,0.00,,,0.00,Wunderground v.1.15,2013-10-27 05:25:00,
2013-10-27 00:30:00,38.4,28.0,30.22,NW,315,1.0,-999.0,66,0.00,,,0.00,Wunderground v.1.15,2013-10-27 05:30:00,
2013-10-27 00:35:00,38.4,28.0,30.22,NW,315,1.0,-999.0,66,0.00,,,0.00,Wunderground v.1.15,2013-10-27 05:35:00,
2013-10-27 00:40:00,38.4,28.0,30.22,NW,315,1.0,-999.0,66,0.00,,,0.00,Wunderground v.1.15,2013-10-27 05:40:00,
2013-10-27 00:45:00,37.4,27.8,30.21,NW,315,1.0,-999.0,68,0.00,,,0.00,Wunderground v.1.15,2013-10-27 05:45:00,
2013-10-27 00:50:00,37.4,27.8,30.21,NW,315,1.0,-999.0,68,0.00,,,0.00,Wunderground v.1.15,2013-10-27 05:50:00,
2013-10-27 00:55:00,37.4,27.8,30.21,NW,315,1.0,-999.0,68,0.00,,,0.00,Wunderground v.1.15,2013-10-27 05:55:00,
2013-10-27 01:00:00,37.4,27.8,30.21,NW,315,1.0,-999.0,68,0.00,,,0.00,Wunderground v.1.15,2013-10-27 06:00:00,
2013-10-27 01:05:00,37.4,27.8,30.21,NW,315,1.0,-999.0,68,0.00,,,0.00,Wunderground v.1.15,2013-10-27 06:05:00,
2013-10-27 01:10:00,37.4,27.8,30.21,NW,315,1.0,-999.0,68,0.00,,,0.00,Wunderground v.1.15,2013-10-27 06:10:00,
2013-10-27 01:15:00,36.5,28.3,30.20,N/A,-737280,0.0,-999.0,72,0.00,,,0.00,Wunderground v.1.15,2013-10-27 06:15:00,
2013-10-27 01:20:00,36.5,28.3,30.20,N/A,-737280,0.0,-999.0,72,0.00,,,0.00,Wunderground v.1.15,2013-10-27 06:20:00,
2013-10-27 01:25:00,36.5,28.3,30.20,N/A,-737280,0.0,-999.0,72,0.00,,,0.00,Wunderground v.1.15,2013-10-27 06:25:00,
2013-10-27 01:30:00,36.5,28.3,30.20,N/A,-737280,0.0,-999.0,72,0.00,,,0.00,Wunderground v.1.15,2013-10-27 06:30:00,
2013-10-27 01:35:00,36.5,28.3,30.20,N/A,-737280,0.0,-999.0,72,0.00,,,0.00,Wunderground v.1.15,2013-10-27 06:35:00,
2013-10-27 01:40:00,36.5,28.3,30.20,N/A,-737280,0.0,-999.0,72,0.00,,,0.00,Wunderground v.1.15,2013-10-27 06:40:00,
2013-10-27 01:45:00,37.2,28.7,30.18,NW,315,0.0,-999.0,71,0.00,,,0.00,Wunderground v.1.15,2013-10-27 06:45:00,
2013-10-27 01:50:00,37.2,28.7,30.18,NW,315,0.0,-999.0,71,0.00,,,0.00,Wunderground v.1.15,2013-10-27 06:50:00,
2013-10-27 01:55:00,37.2,28.7,30.18,NW,315,0.0,-999.0,71,0.00,,,0.00,Wunderground v.1.15,2013-10-27 06:55:00,
2013-10-27 02:00:00,37.2,28.7,30.18,NW,315,0.0,-999.0,71,0.00,,,0.00,Wunderground v.1.15,2013-10-27 07:00:00,
2013-10-27 02:05:00,37.2,28.7,30.18,NW,315,0.0,-999.0,71,0.00,,,0.00,Wunderground v.1.15,2013-10-27 07:05:00,
2013-10-27 02:10:00,37.2,28.7,30.18,NW,315,0.0,-999.0,71,0.00,,,0.00,Wunderground v.1.15,2013-10-27 07:10:00,
2013-10-27 02:15:00,37.9,30.0,30.17,NW,315,0.0,-999.0,73,0.00,,,0.00,Wunderground v.1.15,2013-10-27 07:15:00,
2013-10-27 02:20:00,37.9,30.0,30.17,NW,315,0.0,-999.0,73,0.00,,,0.00,Wunderground v.1.15,2013-10-27 07:20:00,
2013-10-27 02:25:00,37.9,30.0,30.17,NW,315,0.0,-999.0,73,0.00,,,0.00,Wunderground v.1.15,2013-10-27 07:25:00,
2013-10-27 02:30:00,37.9,30.0,30.17,NW,315,0.0,-999.0,73,0.00,,,0.00,Wunderground v.1.15,2013-10-27 07:30:00,
2013-10-27 02:35:00,37.9,30.0,30.17,NW,315,0.0,-999.0,73,0.00,,,0.00,Wunderground v.1.15,2013-10-27 07:35:00,
2013-10-27 02:40:00,37.9,30.0,30.17,NW,315,0.0,-999.0,73,0.00,,,0.00,Wunderground v.1.15,2013-10-27 07:40:00,
2013-10-27 02:45:00,46.5,32.9,30.16,NW,315,2.0,-999.0,59,0.00,,,0.00,Wunderground v.1.15,2013-10-27 07:45:00,
2013-10-27 02:50:00,46.5,32.9,30.16,NW,315,2.0,-999.0,59,0.00,,,0.00,Wunderground v.1.15,2013-10-27 07:50:00,
2013-10-27 02:55:00,46.5,32.9,30.16,NW,315,2.0,-999.0,59,0.00,,,0.00,Wunderground v.1.15,2013-10-27 07:55:00,
2013-10-27 03:00:00,46.5,32.9,30.16,NW,315,2.0,-999.0,59,0.00,,,0.00,Wunderground v.1.15,2013-10-27 08:00:00,
2013-10-27 03:05:00,46.5,32.9,30.16,NW,315,2.0,-999.0,59,0.00,,,0.00,Wunderground v.1.15,2013-10-27 08:05:00,
2013-10-27 03:10:00,46.5,32.9,30.16,NW,315,2.0,-999.0,59,0.00,,,0.00,Wunderground v.1.15,2013-10-27 08:10:00,
2013-10-27 03:15:00,48.8,34.2,30.13,NW,315,4.0,-999.0,57,0.00,,,0.00,Wunderground v.1.15,2013-10-27 08:15:00,
2013-10-27 03:20:00,48.8,34.2,30.13,NW,315,4.0,-999.0,57,0.00,,,0.00,Wunderground v.1.15,2013-10-27 08:20:00,
2013-10-27 03:25:00,48.8,34.2,30.13,NW,315,4.0,-999.0,57,0.00,,,0.00,Wunderground v.1.15,2013-10-27 08:25:00,
2013-10-27 03:30:00,48.8,34.2,30.13,NW,315,4.0,-999.0,57,0.00,,,0.00,Wunderground v.1.15,2013-10-27 08:30:00,
2013-10-27 03:35:00,48.8,34.2,30.13,NW,315,4.0,-999.0,57,0.00,,,0.00,Wunderground v.1.15,2013-10-27 08:35:00,
2013-10-27 03:40:00,48.8,34.2,30.13,NW,315,4.0,-999.0,57,0.00,,,0.00,Wunderground v.1.15,2013-10-27 08:40:00,
2013-10-27 03:45:00,41.9,32.1,30.12,South,180,2.0,-999.0,68,0.00,,,0.00,Wunderground v.1.15,2013-10-27 08:45:00,
2013-10-27 03:50:00,41.9,32.1,30.12,South,180,2.0,-999.0,68,0.00,,,0.00,Wunderground v.1.15,2013-10-27 08:50:00,
2013-10-27 03:55:00,41.9,32.1,30.12,South,180,2.0,-999.0,68,0.00,,,0.00,Wunderground v.1.15,2013-10-27 08:55:00,
2013-10-27 04:00:00,41.9,32.1,30.12,South,180,2.0,-999.0,68,0.00,,,0.00,Wunderground v.1.15,2013-10-27 09:00:00,
2013-10-27 04:05:00,41.9,32.1,30.12,South,180,2.0,-999.0,68,0.00,,,0.00,Wunderground v.1.15,2013-10-27 09:05:00,
2013-10-27 04:10:00,41.9,32.1,30.12,South,180,2.0,-999.0,68,0.00,,,0.00,Wunderground v.1.15,2013-10-27 09:10:00,
2013-10-27 04:15:00,47.4,34.2,30.10,WSW,248,7.0,-999.0,60,0.00,,,0.00,Wunderground v.1.15,2013-10-27 09:15:00,
2013-10-27 04:20:00,47.4,34.2,30.10,WSW,248,7.0,-999.0,60,0.00,,,0.00,Wunderground v.1.15,2013-10-27 09:20:00,
2013-10-27 04:25:00,47.4,34.2,30.10,WSW,248,7.0,-999.0,60,0.00,,,0.00,Wunderground v.1.15,2013-10-27 09:25:00,
2013-10-27 04:30:00,47.4,34.2,30.10,WSW,248,7.0,-999.0,60,0.00,,,0.00,Wunderground v.1.15,2013-10-27 09:30:00,
2013-10-27 04:35:00,47.4,34.2,30.10,WSW,248,7.0,-999.0,60,0.00,,,0.00,Wunderground v.1.15,2013-10-27 09:35:00,
2013-10-27 04:40:00,47.4,34.2,30.10,WSW,248,7.0,-999.0,60,0.00,,,0.00,Wunderground v.1.15,2013-10-27 09:40:00,
2013-10-27 04:45:00,45.7,33.8,30.09,WSW,248,6.0,-999.0,63,0.00,,,0.00,Wunderground v.1.15,2013-10-27 09:45:00,
2013-10-27 04:50:00,45.7,33.8,30.09,WSW,248,6.0,-999.0,63,0.00,,,0.00,Wunderground v.1.15,2013-10-27 09:50:00,
2013-10-27 04:55:00,45.7,33.8,30.09,WSW,248,6.0,-999.0,63,0.00,,,0.00,Wunderground v.1.15,2013-10-27 09:55:00,
2013-10-27 05:00:00,45.7,33.8,30.09,WSW,248,6.0,-999.0,63,0.00,,,0.00,Wunderground v.1.15,2013-10-27 10:00:00,
2013-10-27 05:05:00,45.7,33.8,30.09,WSW,248,6.0,-999.0,63,0.00,,,0.00,Wunderground v.1.15,2013-10-27 10:05:00,
2013-10-27 05:10:00,45.7,33.8,30.09,WSW,248,6.0,-999.0,63,0.00,,,0.00,Wunderground v.1.15,2013-10-27 10:10:00,
2013-10-27 05:15:00,44.7,33.3,30.09,SW,225,5.0,-999.0,64,0.00,,,0.00,Wunderground v.1.15,2013-10-27 10:15:00,
2013-10-27 05:20:00,44.7,33.3,30.09,SW,225,5.0,-999.0,64,0.00,,,0.00,Wunderground v.1.15,2013-10-27 10:20:00,
2013-10-27 05:25:00,44.7,33.3,30.09,SW,225,5.0,-999.0,64,0.00,,,0.00,Wunderground v.1.15,2013-10-27 10:25:00,
2013-10-27 05:30:00,44.7,33.3,30.09,SW,225,5.0,-999.0,64,0.00,,,0.00,Wunderground v.1.15,2013-10-27 10:30:00,
2013-10-27 05:35:00,44.7,33.3,30.09,SW,225,5.0,-999.0,64,0.00,,,0.00,Wunderground v.1.15,2013-10-27 10:35:00,
2013-10-27 05:40:00,44.7,33.3,30.09,SW,225,5.0,-999.0,64,0.00,,,0.00,Wunderground v.1.15,2013-10-27 10:40:00,
2013-10-27 05:45:00,42.9,32.7,30.08,WSW,248,2.0,-999.0,67,0.00,,,0.00,Wunderground v.1.15,2013-10-27 10:45:00,
2013-10-27 05:50:00,42.9,32.7,30.08,WSW,248,2.0,-999.0,67,0.00,,,0.00,Wunderground v.1.15,2013-10-27 10:50:00,
2013-10-27 05:55:00,42.9,32.7,30.08,WSW,248,2.0,-999.0,67,0.00,,,0.00,Wunderground v.1.15,2013-10-27 10:55:00,
2013-10-27 06:00:00,42.9,32.7,30.08,WSW,248,2.0,-999.0,67,0.00,,,0.00,Wunderground v.1.15,2013-10-27 11:00:00,
2013-10-27 06:05:00,42.9,32.7,30.08,WSW,248,2.0,-999.0,67,0.00,,,0.00,Wunderground v.1.15,2013-10-27 11:05:00,
2013-10-27 06:10:00,42.9,32.7,30.08,WSW,248,2.0,-999.0,67,0.00,,,0.00,Wunderground v.1.15,2013-10-27 11:10:00,
2013-10-27 06:15:00,42.3,33.2,30.07,WSW,248,1.0,-999.0,70,0.00,,,0.00,Wunderground v.1.15,2013-10-27 11:15:00,
2013-10-27 06:20:00,42.3,33.2,30.07,WSW,248,1.0,-999.0,70,0.00,,,0.00,Wunderground v.1.15,2013-10-27 11:20:00,
2013-10-27 06:25:00,42.3,33.2,30.07,WSW,248,1.0,-999.0,70,0.00,,,0.00,Wunderground v.1.15,2013-10-27 11:25:00,
2013-10-27 06:30:00,42.3,33.2,30.07,WSW,248,1.0,-999.0,70,0.00,,,0.00,Wunderground v.1.15,2013-10-27 11:30:00,
2013-10-27 06:35:00,42.3,33.2,30.07,WSW,248,1.0,-999.0,70,0.00,,,0.00,Wunderground v.1.15,2013-10-27 11:35:00,
2013-10-27 06:40:00,42.3,33.2,30.07,WSW,248,1.0,-999.0,70,0.00,,,0.00,Wunderground v.1.15,2013-10-27 11:40:00,
2013-10-27 06:45:00,42.0,32.9,30.06,WSW,248,2.0,-999.0,70,0.00,,,0.00,Wunderground v.1.15,2013-10-27 11:45:00,
2013-10-27 06:50:00,42.0,32.9,30.06,WSW,248,2.0,-999.0,70,0.00,,,0.00,Wunderground v.1.15,2013-10-27 11:50:00,
2013-10-27 06:55:00,42.0,32.9,30.06,WSW,248,2.0,-999.0,70,0.00,,,0.00,Wunderground v.1.15,2013-10-27 11:55:00,
2013-10-27 07:00:00,42.0,32.9,30.06,WSW,248,2.0,-999.0,70,0.00,,,0.00,Wunderground v.1.15,2013-10-27 12:00:00,
2013-10-27 07:05:00,42.0,32.9,30.06,WSW,248,2.0,-999.0,70,0.00,,,0.00,Wunderground v.1.15,2013-10-27 12:05:00,
2013-10-27 07:10:00,42.0,32.9,30.06,WSW,248,2.0,-999.0,70,0.00,,,0.00,Wunderground v.1.15,2013-10-27 12:10:00,
2013-10-27 07:15:00,39.4,31.8,30.05,WSW,248,1.0,-999.0,74,0.00,,,0.00,Wunderground v.1.15,2013-10-27 12:15:00,
2013-10-27 07:20:00,39.4,31.8,30.05,WSW,248,1.0,-999.0,74,0.00,,,0.00,Wunderground v.1.15,2013-10-27 12:20:00,
2013-10-27 07:25:00,39.4,31.8,30.05,WSW,248,1.0,-999.0,74,0.00,,,0.00,Wunderground v.1.15,2013-10-27 12:25:00,
2013-10-27 07:30:00,39.4,31.8,30.05,WSW,248,1.0,-999.0,74,0.00,,,0.00,Wunderground v.1.15,2013-10-27 12:30:00,
2013-10-27 07:35:00,39.4,31.8,30.05,WSW,248,1.0,-999.0,74,0.00,,,0.00,Wunderground v.1.15,2013-10-27 12:35:00,
2013-10-27 07:40:00,39.4,31.8,30.05,WSW,248,1.0,-999.0,74,0.00,,,0.00,Wunderground v.1.15,2013-10-27 12:40:00,
2013-10-27 07:45:00,39.1,31.8,30.04,WSW,248,1.0,-999.0,75,0.00,,,0.00,Wunderground v.1.15,2013-10-27 12:45:00,
2013-10-27 07:50:00,39.1,31.8,30.04,WSW,248,1.0,-999.0,75,0.00,,,0.00,Wunderground v.1.15,2013-10-27 12:50:00,
2013-10-27 07:55:00,39.1,31.8,30.04,WSW,248,1.0,-999.0,75,0.00,,,0.00,Wunderground v.1.15,2013-10-27 12:55:00,
2013-10-27 08:00:00,39.1,31.8,30.04,WSW,248,1.0,-999.0,75,0.00,,,0.00,Wunderground v.1.15,2013-10-27 13:00:00,
2013-10-27 08:05:00,39.1,31.8,30.04,WSW,248,1.0,-999.0,75,0.00,,,0.00,Wunderground v.1.15,2013-10-27 13:05:00,
2013-10-27 08:10:00,39.1,31.8,30.04,WSW,248,1.0,-999.0,75,0.00,,,0.00,Wunderground v.1.15,2013-10-27 13:10:00,
2013-10-27 08:15:00,38.2,31.3,30.03,WSW,248,0.0,-999.0,76,0.00,,,0.00,Wunderground v.1.15,2013-10-27 13:15:00,
2013-10-27 08:20:00,38.2,31.3,30.03,WSW,248,0.0,-999.0,76,0.00,,,0.00,Wunderground v.1.15,2013-10-27 13:20:00,
2013-10-27 08:25:00,38.2,31.3,30.03,WSW,248,0.0,-999.0,76,0.00,,,0.00,Wunderground v.1.15,2013-10-27 13:25:00,
2013-10-27 08:30:00,38.2,31.3,30.03,WSW,248,0.0,-999.0,76,0.00,,,0.00,Wunderground v.1.15,2013-10-27 13:30:00,
2013-10-27 08:35:00,38.2,31.3,30.03,WSW,248,0.0,-999.0,76,0.00,,,0.00,Wunderground v.1.15,2013-10-27 13:35:00,
2013-10-27 08:40:00,38.2,31.3,30.03,WSW,248,0.0,-999.0,76,0.00,,,0.00,Wunderground v.1.15,2013-10-27 13:40:00,
2013-10-27 08:45:00,37.9,31.7,30.04,N/A,-737280,0.0,-999.0,78,0.00,,,0.00,Wunderground v.1.15,2013-10-27 13:45:00,
2013-10-27 08:50:00,37.9,31.7,30.04,N/A,-737280,0.0,-999.0,78,0.00,,,0.00,Wunderground v.1.15,2013-10-27 13:50:00,
2013-10-27 08:55:00,37.9,31.7,30.04,N/A,-737280,0.0,-999.0,78,0.00,,,0.00,Wunderground v.1.15,2013-10-27 13:55:00,
2013-10-27 09:00:00,37.9,31.7,30.04,N/A,-737280,0.0,-999.0,78,0.00,,,0.00,Wunderground v.1.15,2013-10-27 14:00:00,
2013-10-27 09:05:00,37.9,31.7,30.04,N/A,-737280,0.0,-999.0,78,0.00,,,0.00,Wunderground v.1.15,2013-10-27 14:05:00,
2013-10-27 09:10:00,37.9,31.7,30.04,N/A,-737280,0.0,-999.0,78,0.00,,,0.00,Wunderground v.1.15,2013-10-27 14:10:00,
2013-10-27 09:15:00,41.5,34.2,30.04,WSW,248,0.0,-999.0,75,0.00,,,0.00,Wunderground v.1.15,2013-10-27 14:15:00,
2013-10-27 09:20:00,41.5,34.2,30.04,WSW,248,0.0,-999.0,75,0.00,,,0.00,Wunderground v.1.15,2013-10-27 14:20:00,
2013-10-27 09:25:00,41.5,34.2,30.04,WSW,248,0.0,-999.0,75,0.00,,,0.00,Wunderground v.1.15,2013-10-27 14:25:00,
2013-10-27 09:30:00,41.5,34.2,30.04,WSW,248,0.0,-999.0,75,0.00,,,0.00,Wunderground v.1.15,2013-10-27 14:30:00,
2013-10-27 09:35:00,41.5,34.2,30.04,WSW,248,0.0,-999.0,75,0.00,,,0.00,Wunderground v.1.15,2013-10-27 14:35:00,
2013-10-27 09:40:00,41.5,34.2,30.04,WSW,248,0.0,-999.0,75,0.00,,,0.00,Wunderground v.1.15,2013-10-27 14:40:00,
2013-10-27 09:45:00,46.6,35.8,30.04,WSW,248,3.0,-999.0,66,0.00,,,0.00,Wunderground v.1.15,2013-10-27 14:45:00,
2013-10-27 09:50:00,46.6,35.8,30.04,WSW,248,3.0,-999.0,66,0.00,,,0.00,Wunderground v.1.15,2013-10-27 14:50:00,
2013-10-27 09:55:00,46.6,35.8,30.04,WSW,248,3.0,-999.0,66,0.00,,,0.00,Wunderground v.1.15,2013-10-27 14:55:00,
2013-10-27 10:00:00,46.6,35.8,30.04,WSW,248,3.0,-999.0,66,0.00,,,0.00,Wunderground v.1.15,2013-10-27 15:00:00,
2013-10-27 10:05:00,46.6,35.8,30.04,WSW,248,3.0,-999.0,66,0.00,,,0.00,Wunderground v.1.15,2013-10-27 15:05:00,
2013-10-27 10:10:00,46.6,35.8,30.04,WSW,248,3.0,-999.0,66,0.00,,,0.00,Wunderground v.1.15,2013-10-27 15:10:00,
2013-10-27 10:15:00,49.9,37.4,30.03,WSW,248,3.0,-999.0,62,0.00,,,0.00,Wunderground v.1.15,2013-10-27 15:15:00,
2013-10-27 10:20:00,49.9,37.4,30.03,WSW,248,3.0,-999.0,62,0.00,,,0.00,Wunderground v.1.15,2013-10-27 15:20:00,
2013-10-27 10:25:00,49.9,37.4,30.03,WSW,248,3.0,-999.0,62,0.00,,,0.00,Wunderground v.1.15,2013-10-27 15:25:00,
2013-10-27 10:30:00,49.9,37.4,30.03,WSW,248,3.0,-999.0,62,0.00,,,0.00,Wunderground v.1.15,2013-10-27 15:30:00,
2013-10-27 10:35:00,49.9,37.4,30.03,WSW,248,3.0,-999.0,62,0.00,,,0.00,Wunderground v.1.15,2013-10-27 15:35:00,
2013-10-27 10:40:00,49.9,37.4,30.03,WSW,248,3.0,-999.0,62,0.00,,,0.00,Wunderground v.1.15,2013-10-27 15:40:00,
2013-10-27 10:45:00,52.7,38.3,30.02,West,270,3.0,-999.0,58,0.00,,,0.00,Wunderground v.1.15,2013-10-27 15:45:00,
2013-10-27 10:50:00,52.7,38.3,30.02,West,270,3.0,-999.0,58,0.00,,,0.00,Wunderground v.1.15,2013-10-27 15:50:00,
2013-10-27 10:55:00,52.7,38.3,30.02,West,270,3.0,-999.0,58,0.00,,,0.00,Wunderground v.1.15,2013-10-27 15:55:00,
2013-10-27 11:00:00,52.7,38.3,30.02,West,270,3.0,-999.0,58,0.00,,,0.00,Wunderground v.1.15,2013-10-27 16:00:00,
2013-10-27 11:05:00,52.7,38.3,30.02,West,270,3.0,-999.0,58,0.00,,,0.00,Wunderground v.1.15,2013-10-27 16:05:00,
2013-10-27 11:10:00,52.7,38.3,30.02,West,270,3.0,-999.0,58,0.00,,,0.00,Wunderground v.1.15,2013-10-27 16:10:00,
2013-10-27 11:15:00,56.2,38.8,30.01,West,270,4.0,-999.0,52,0.00,,,0.00,Wunderground v.1.15,2013-10-27 16:15:00,
2013-10-27 11:20:00,56.2,38.8,30.01,West,270,4.0,-999.0,52,0.00,,,0.00,Wunderground v.1.15,2013-10-27 16:20:00,
2013-10-27 11:25:00,56.2,38.8,30.01,West,270,4.0,-999.0,52,0.00,,,0.00,Wunderground v.1.15,2013-10-27 16:25:00,
2013-10-27 11:30:00,56.2,38.8,30.01,West,270,4.0,-999.0,52,0.00,,,0.00,Wunderground v.1.15,2013-10-27 16:30:00,
2013-10-27 11:35:00,56.2,38.8,30.01,West,270,4.0,-999.0,52,0.00,,,0.00,Wunderground v.1.15,2013-10-27 16:35:00,
2013-10-27 11:40:00,56.2,38.8,30.01,West,270,4.0,-999.0,52,0.00,,,0.00,Wunderground v.1.15,2013-10-27 16:40:00,
2013-10-27 11:45:00,60.2,39.3,30.00,WNW,293,4.0,-999.0,46,0.00,,,0.00,Wunderground v.1.15,2013-10-27 16:45:00,
2013-10-27 11:50:00,60.2,39.3,30.00,WNW,293,4.0,-999.0,46,0.00,,,0.00,Wunderground v.1.15,2013-10-27 16:50:00,
2013-10-27 11:55:00,60.2,39.3,30.00,WNW,293,4.0,-999.0,46,0.00,,,0.00,Wunderground v.1.15,2013-10-27 16:55:00,
2013-10-27 12:00:00,60.2,39.3,30.00,WNW,293,4.0,-999.0,46,0.00,,,0.00,Wunderground v.1.15,2013-10-27 17:00:00,
2013-10-27 12:05:00,60.2,39.3,30.00,WNW,293,4.0,-999.0,46,0.00,,,0.00,Wunderground v.1.15,2013-10-27 17:05:00,
2013-10-27 12:10:00,60.2,39.3,30.00,WNW,293,4.0,-999.0,46,0.00,,,0.00,Wunderground v.1.15,2013-10-27 17:10:00,
2013-10-27 12:15:00,63.6,40.7,29.99,WNW,293,3.0,-999.0,43,0.00,,,0.00,Wunderground v.1.15,2013-10-27 17:15:00,
2013-10-27 12:20:00,63.6,40.7,29.99,WNW,293,3.0,-999.0,43,0.00,,,0.00,Wunderground v.1.15,2013-10-27 17:20:00,
2013-10-27 12:25:00,63.6,40.7,29.99,WNW,293,3.0,-999.0,43,0.00,,,0.00,Wunderground v.1.15,2013-10-27 17:25:00,
2013-10-27 12:30:00,63.6,40.7,29.99,WNW,293,3.0,-999.0,43,0.00,,,0.00,Wunderground v.1.15,2013-10-27 17:30:00,
2013-10-27 12:35:00,63.6,40.7,29.99,WNW,293,3.0,-999.0,43,0.00,,,0.00,Wunderground v.1.15,2013-10-27 17:35:00,
2013-10-27 12:40:00,63.6,40.7,29.99,WNW,293,3.0,-999.0,43,0.00,,,0.00,Wunderground v.1.15,2013-10-27 17:40:00,
2013-10-27 12:45:00,66.7,39.6,29.97,WNW,293,4.0,-999.0,37,0.00,,,0.00,Wunderground v.1.15,2013-10-27 17:45:00,
2013-10-27 12:50:00,66.7,39.6,29.97,WNW,293,4.0,-999.0,37,0.00,,,0.00,Wunderground v.1.15,2013-10-27 17:50:00,
2013-10-27 12:55:00,66.7,39.6,29.97,WNW,293,4.0,-999.0,37,0.00,,,0.00,Wunderground v.1.15,2013-10-27 17:55:00,
2013-10-27 13:00:00,66.7,39.6,29.97,WNW,293,4.0,-999.0,37,0.00,,,0.00,Wunderground v.1.15,2013-10-27 18:00:00,
2013-10-27 13:05:00,66.7,39.6,29.97,WNW,293,4.0,-999.0,37,0.00,,,0.00,Wunderground v.1.15,2013-10-27 18:05:00,
2013-10-27 13:10:00,66.7,39.6,29.97,WNW,293,4.0,-999.0,37,0.00,,,0.00,Wunderground v.1.15,2013-10-27 18:10:00,
2013-10-27 13:15:00,69.1,40.3,29.96,WNW,293,4.0,-999.0,35,0.00,,,0.00,Wunderground v.1.15,2013-10-27 18:15:00,
2013-10-27 13:20:00,69.1,40.3,29.96,WNW,293,4.0,-999.0,35,0.00,,,0.00,Wunderground v.1.15,2013-10-27 18:20:00,
2013-10-27 13:25:00,69.1,40.3,29.96,WNW,293,4.0,-999.0,35,0.00,,,0.00,Wunderground v.1.15,2013-10-27 18:25:00,
2013-10-27 13:30:00,69.1,40.3,29.96,WNW,293,4.0,-999.0,35,0.00,,,0.00,Wunderground v.1.15,2013-10-27 18:30:00,
2013-10-27 13:35:00,69.1,40.3,29.96,WNW,293,4.0,-999.0,35,0.00,,,0.00,Wunderground v.1.15,2013-10-27 18:35:00,
2013-10-27 13:40:00,69.1,40.3,29.96,WNW,293,4.0,-999.0,35,0.00,,,0.00,Wunderground v.1.15,2013-10-27 18:40:00,
2013-10-27 13:45:00,70.2,39.7,29.94,West,270,5.0,-999.0,33,0.00,,,0.00,Wunderground v.1.15,2013-10-27 18:45:00,
2013-10-27 13:50:00,70.2,39.7,29.94,West,270,5.0,-999.0,33,0.00,,,0.00,Wunderground v.1.15,2013-10-27 18:50:00,
2013-10-27 13:55:00,70.2,39.7,29.94,West,270,5.0,-999.0,33,0.00,,,0.00,Wunderground v.1.15,2013-10-27 18:55:00,
2013-10-27 14:00:00,70.2,39.7,29.94,West,270,5.0,-999.0,33,0.00,,,0.00,Wunderground v.1.15,2013-10-27 19:00:00,
2013-10-27 14:05:00,70.2,39.7,29.94,West,270,5.0,-999.0,33,0.00,,,0.00,Wunderground v.1.15,2013-10-27 19:05:00,
2013-10-27 14:10:00,70.2,39.7,29.94,West,270,5.0,-999.0,33,0.00,,,0.00,Wunderground v.1.15,2013-10-27 19:10:00,
2013-10-27 14:15:00,71.7,39.4,29.92,West,270,3.0,-999.0,31,0.00,,,0.00,Wunderground v.1.15,2013-10-27 19:15:00,
2013-10-27 14:20:00,71.7,39.4,29.92,West,270,3.0,-999.0,31,0.00,,,0.00,Wunderground v.1.15,2013-10-27 19:20:00,
2013-10-27 14:25:00,71.7,39.4,29.92,West,270,3.0,-999.0,31,0.00,,,0.00,Wunderground v.1.15,2013-10-27 19:25:00,
2013-10-27 14:30:00,71.7,39.4,29.92,West,270,3.0,-999.0,31,0.00,,,0.00,Wunderground v.1.15,2013-10-27 19:30:00,
2013-10-27 14:35:00,71.7,39.4,29.92,West,270,3.0,-999.0,31,0.00,,,0.00,Wunderground v.1.15,2013-10-27 19:35:00,
2013-10-27 14:40:00,71.7,39.4,29.92,West,270,3.0,-999.0,31,0.00,,,0.00,Wunderground v.1.15,2013-10-27 19:40:00,
2013-10-27 14:45:00,72.9,37.9,29.90,West,270,3.0,-999.0,28,0.00,,,0.00,Wunderground v.1.15,2013-10-27 19:45:00,
2013-10-27 14:50:00,72.9,37.9,29.90,West,270,3.0,-999.0,28,0.00,,,0.00,Wunderground v.1.15,2013-10-27 19:50:00,
2013-10-27 14:55:00,72.9,37.9,29.90,West,270,3.0,-999.0,28,0.00,,,0.00,Wunderground v.1.15,2013-10-27 19:55:00,
2013-10-27 15:00:00,72.9,37.9,29.90,West,270,3.0,-999.0,28,0.00,,,0.00,Wunderground v.1.15,2013-10-27 20:00:00,
2013-10-27 15:05:00,72.9,37.9,29.90,West,270,3.0,-999.0,28,0.00,,,0.00,Wunderground v.1.15,2013-10-27 20:05:00,
2013-10-27 15:10:00,72.9,37.9,29.90,West,270,3.0,-999.0,28,0.00,,,0.00,Wunderground v.1.15,2013-10-27 20:10:00,
2013-10-27 15:15:00,74.1,38.9,29.89,West,270,3.0,-999.0,28,0.00,,,0.00,Wunderground v.1.15,2013-10-27 20:15:00,
2013-10-27 15:20:00,74.1,38.9,29.89,West,270,3.0,-999.0,28,0.00,,,0.00,Wunderground v.1.15,2013-10-27 20:20:00,
2013-10-27 15:25:00,74.1,38.9,29.89,West,270,3.0,-999.0,28,0.00,,,0.00,Wunderground v.1.15,2013-10-27 20:25:00,
2013-10-27 15:30:00,74.1,38.9,29.89,West,270,3.0,-999.0,28,0.00,,,0.00,Wunderground v.1.15,2013-10-27 20:30:00,
2013-10-27 15:35:00,74.1,38.9,29.89,West,270,3.0,-999.0,28,0.00,,,0.00,Wunderground v.1.15,2013-10-27 20:35:00,
2013-10-27 15:40:00,74.1,38.9,29.89,West,270,3.0,-999.0,28,0.00,,,0.00,Wunderground v.1.15,2013-10-27 20:40:00,
2013-10-27 15:45:00,75.2,37.9,29.88,West,270,3.0,-999.0,26,0.00,,,0.00,Wunderground v.1.15,2013-10-27 20:45:00,
2013-10-27 15:50:00,75.2,37.9,29.88,West,270,3.0,-999.0,26,0.00,,,0.00,Wunderground v.1.15,2013-10-27 20:50:00,
2013-10-27 15:55:00,75.2,37.9,29.88,West,270,3.0,-999.0,26,0.00,,,0.00,Wunderground v.1.15,2013-10-27 20:55:00,
2013-10-27 16:00:00,75.2,37.9,29.88,West,270,3.0,-999.0,26,0.00,,,0.00,Wunderground v.1.15,2013-10-27 21:00:00,
2013-10-27 16:05:00,75.2,37.9,29.88,West,270,3.0,-999.0,26,0.00,,,0.00,Wunderground v.1.15,2013-10-27 21:05:00,
2013-10-27 16:10:00,75.2,37.9,29.88,West,270,3.0,-999.0,26,0.00,,,0.00,Wunderground v.1.15,2013-10-27 21:10:00,
2013-10-27 16:15:00,75.3,38.0,29.88,NW,315,4.0,-999.0,26,0.00,,,0.00,Wunderground v.1.15,2013-10-27 21:15:00,
2013-10-27 16:20:00,75.3,38.0,29.88,NW,315,4.0,-999.0,26,0.00,,,0.00,Wunderground v.1.15,2013-10-27 21:20:00,
2013-10-27 16:25:00,75.3,38.0,29.88,NW,315,4.0,-999.0,26,0.00,,,0.00,Wunderground v.1.15,2013-10-27 21:25:00,
2013-10-27 16:30:00,75.3,38.0,29.88,NW,315,4.0,-999.0,26,0.00,,,0.00,Wunderground v.1.15,2013-10-27 21:30:00,
2013-10-27 16:35:00,75.3,38.0,29.88,NW,315,4.0,-999.0,26,0.00,,,0.00,Wunderground v.1.15,2013-10-27 21:35:00,
2013-10-27 16:40:00,75.3,38.0,29.88,NW,315,4.0,-999.0,26,0.00,,,0.00,Wunderground v.1.15,2013-10-27 21:40:00,
2013-10-27 16:45:00,75.1,38.8,29.88,NW,315,3.0,-999.0,27,0.00,,,0.00,Wunderground v.1.15,2013-10-27 21:45:00,
2013-10-27 16:50:00,75.1,38.8,29.88,NW,315,3.0,-999.0,27,0.00,,,0.00,Wunderground v.1.15,2013-10-27 21:50:00,
2013-10-27 16:55:00,75.1,38.8,29.88,NW,315,3.0,-999.0,27,0.00,,,0.00,Wunderground v.1.15,2013-10-27 21:55:00,
2013-10-27 17:00:00,75.1,38.8,29.88,NW,315,3.0,-999.0,27,0.00,,,0.00,Wunderground v.1.15,2013-10-27 22:00:00,
2013-10-27 17:05:00,75.1,38.8,29.88,NW,315,3.0,-999.0,27,0.00,,,0.00,Wunderground v.1.15,2013-10-27 22:05:00,
2013-10-27 17:10:00,75.1,38.8,29.88,NW,315,3.0,-999.0,27,0.00,,,0.00,Wunderground v.1.15,2013-10-27 22:10:00,
2013-10-27 17:15:00,74.9,38.7,29.87,NW,315,2.0,-999.0,27,0.00,,,0.00,Wunderground v.1.15,2013-10-27 22:15:00,
2013-10-27 17:20:00,74.9,38.7,29.87,NW,315,2.0,-999.0,27,0.00,,,0.00,Wunderground v.1.15,2013-10-27 22:20:00,
2013-10-27 17:25:00,74.9,38.7,29.87,NW,315,2.0,-999.0,27,0.00,,,0.00,Wunderground v.1.15,2013-10-27 22:25:00,
2013-10-27 17:30:00,74.9,38.7,29.87,NW,315,2.0,-999.0,27,0.00,,,0.00,Wunderground v.1.15,2013-10-27 22:30:00,
2013-10-27 17:35:00,74.9,38.7,29.87,NW,315,2.0,-999.0,27,0.00,,,0.00,Wunderground v.1.15,2013-10-27 22:35:00,
2013-10-27 17:40:00,74.9,38.7,29.87,NW,315,2.0,-999.0,27,0.00,,,0.00,Wunderground v.1.15,2013-10-27 22:40:00,
2013-10-27 17:45:00,73.7,38.6,29.87,NW,315,1.0,-999.0,28,0.00,,,0.00,Wunderground v.1.15,2013-10-27 22:45:00,
2013-10-27 17:50:00,73.7,38.6,29.87,NW,315,1.0,-999.0,28,0.00,,,0.00,Wunderground v.1.15,2013-10-27 22:50:00,
2013-10-27 17:55:00,73.7,38.6,29.87,NW,315,1.0,-999.0,28,0.00,,,0.00,Wunderground v.1.15,2013-10-27 22:55:00,
2013-10-27 18:00:00,73.7,38.6,29.87,NW,315,1.0,-999.0,28,0.00,,,0.00,Wunderground v.1.15,2013-10-27 23:00:00,
2013-10-27 18:05:00,73.7,38.6,29.87,NW,315,1.0,-999.0,28,0.00,,,0.00,Wunderground v.1.15,2013-10-27 23:05:00,
2013-10-27 18:10:00,73.7,38.6,29.87,NW,315,1.0,-999.0,28,0.00,,,0.00,Wunderground v.1.15,2013-10-27 23:10:00,
2013-10-27 18:15:00,71.7,39.4,29.87,NW,315,0.0,-999.0,31,0.00,,,0.00,Wunderground v.1.15,2013-10-27 23:15:00,
2013-10-27 18:20:00,71.7,39.4,29.87,NW,315,0.0,-999.0,31,0.00,,,0.00,Wunderground v.1.15,2013-10-27 23:20:00,
2013-10-27 18:25:00,71.7,39.4,29.87,NW,315,0.0,-999.0,31,0.00,,,0.00,Wunderground v.1.15,2013-10-27 23:25:00,
2013-10-27 18:30:00,71.7,39.4,29.87,NW,315,0.0,-999.0,31,0.00,,,0.00,Wunderground v.1.15,2013-10-27 23:30:00,
2013-10-27 18:35:00,71.7,39.4,29.87,NW,315,0.0,-999.0,31,0.00,,,0.00,Wunderground v.1.15,2013-10-27 23:35:00,
2013-10-27 18:40:00,71.7,39.4,29.87,NW,315,0.0,-999.0,31,0.00,,,0.00,Wunderground v.1.15,2013-10-27 23:40:00,
2013-10-27 18:45:00,65.5,38.5,29.88,NW,315,1.0,-999.0,37,0.00,,,0.00,Wunderground v.1.15,2013-10-27 23:45:00,
2013-10-27 18:50:00,65.5,38.5,29.88,NW,315,1.0,-999.0,37,0.00,,,0.00,Wunderground v.1.15,2013-10-27 23:50:00,
2013-10-27 18:55:00,65.5,38.5,29.88,NW,315,1.0,-999.0,37,0.00,,,0.00,Wunderground v.1.15,2013-10-27 23:55:00,
2013-10-27 19:00:00,65.5,38.5,29.88,NW,315,1.0,-999.0,37,0.00,,,0.00,Wunderground v.1.15,2013-10-28 00:00:00,
2013-10-27 19:05:00,65.5,38.5,29.88,NW,315,1.0,-999.0,37,0.00,,,0.00,Wunderground v.1.15,2013-10-28 00:05:00,
2013-10-27 19:10:00,65.5,38.5,29.88,NW,315,1.0,-999.0,37,0.00,,,0.00,Wunderground v.1.15,2013-10-28 00:10:00,
2013-10-27 19:15:00,62.1,38.1,29.89,NW,315,0.0,-999.0,41,0.00,,,0.00,Wunderground v.1.15,2013-10-28 00:15:00,
2013-10-27 19:20:00,62.1,38.1,29.89,NW,315,0.0,-999.0,41,0.00,,,0.00,Wunderground v.1.15,2013-10-28 00:20:00,
2013-10-27 19:25:00,62.1,38.1,29.89,NW,315,0.0,-999.0,41,0.00,,,0.00,Wunderground v.1.15,2013-10-28 00:25:00,
2013-10-27 19:30:00,62.1,38.1,29.89,NW,315,0.0,-999.0,41,0.00,,,0.00,Wunderground v.1.15,2013-10-28 00:30:00,
2013-10-27 19:35:00,62.1,38.1,29.89,NW,315,0.0,-999.0,41,0.00,,,0.00,Wunderground v.1.15,2013-10-28 00:35:00,
2013-10-27 19:40:00,62.1,38.1,29.89,NW,315,0.0,-999.0,41,0.00,,,0.00,Wunderground v.1.15,2013-10-28 00:40:00,
2013-10-27 19:45:00,58.7,39.0,29.89,N/A,-737280,0.0,-999.0,48,0.00,,,0.00,Wunderground v.1.15,2013-10-28 00:45:00,
2013-10-27 19:50:00,58.7,39.0,29.89,N/A,-737280,0.0,-999.0,48,0.00,,,0.00,Wunderground v.1.15,2013-10-28 00:50:00,
2013-10-27 19:55:00,58.7,39.0,29.89,N/A,-737280,0.0,-999.0,48,0.00,,,0.00,Wunderground v.1.15,2013-10-28 00:55:00,
2013-10-27 20:00:00,58.7,39.0,29.89,N/A,-737280,0.0,-999.0,48,0.00,,,0.00,Wunderground v.1.15,2013-10-28 01:00:00,
2013-10-27 20:05:00,58.7,39.0,29.89,N/A,-737280,0.0,-999.0,48,0.00,,,0.00,Wunderground v.1.15,2013-10-28 01:05:00,
2013-10-27 20:10:00,58.7,39.0,29.89,N/A,-737280,0.0,-999.0,48,0.00,,,0.00,Wunderground v.1.15,2013-10-28 01:10:00,
2013-10-27 20:15:00,56.3,37.4,29.90,NW,315,0.0,-999.0,49,0.00,,,0.00,Wunderground v.1.15,2013-10-28 01:15:00,
2013-10-27 20:20:00,56.3,37.4,29.90,NW,315,0.0,-999.0,49,0.00,,,0.00,Wunderground v.1.15,2013-10-28 01:20:00,
2013-10-27 20:25:00,56.3,37.4,29.90,NW,315,0.0,-999.0,49,0.00,,,0.00,Wunderground v.1.15,2013-10-28 01:25:00,
2013-10-27 20:30:00,56.3,37.4,29.90,NW,315,0.0,-999.0,49,0.00,,,0.00,Wunderground v.1.15,2013-10-28 01:30:00,
2013-10-27 20:35:00,56.3,37.4,29.90,NW,315,0.0,-999.0,49,0.00,,,0.00,Wunderground v.1.15,2013-10-28 01:35:00,
2013-10-27 20:40:00,56.3,37.4,29.90,NW,315,0.0,-999.0,49,0.00,,,0.00,Wunderground v.1.15,2013-10-28 01:40:00,
2013-10-27 20:45:00,54.3,38.9,29.91,NW,315,1.0,-999.0,56,0.00,,,0.00,Wunderground v.1.15,2013-10-28 01:45:00,
2013-10-27 20:50:00,54.3,38.9,29.91,NW,315,1.0,-999.0,56,0.00,,,0.00,Wunderground v.1.15,2013-10-28 01:50:00,
2013-10-27 20:55:00,54.3,38.9,29.91,NW,315,1.0,-999.0,56,0.00,,,0.00,Wunderground v.1.15,2013-10-28 01:55:00,
2013-10-27 21:00:00,54.3,38.9,29.91,NW,315,1.0,-999.0,56,0.00,,,0.00,Wunderground v.1.15,2013-10-28 02:00:00,
2013-10-27 21:05:00,54.3,38.9,29.91,NW,315,1.0,-999.0,56,0.00,,,0.00,Wunderground v.1.15,2013-10-28 02:05:00,
2013-10-27 21:10:00,54.3,38.9,29.91,NW,315,1.0,-999.0,56,0.00,,,0.00,Wunderground v.1.15,2013-10-28 02:10:00,
2013-10-27 21:15:00,53.5,37.7,29.91,NW,315,0.0,-999.0,55,0.00,,,0.00,Wunderground v.1.15,2013-10-28 02:15:00,
2013-10-27 21:20:00,53.5,37.7,29.91,NW,315,0.0,-999.0,55,0.00,,,0.00,Wunderground v.1.15,2013-10-28 02:20:00,
2013-10-27 21:25:00,53.5,37.7,29.91,NW,315,0.0,-999.0,55,0.00,,,0.00,Wunderground v.1.15,2013-10-28 02:25:00,
2013-10-27 21:30:00,53.5,37.7,29.91,NW,315,0.0,-999.0,55,0.00,,,0.00,Wunderground v.1.15,2013-10-28 02:30:00,
2013-10-27 21:35:00,53.5,37.7,29.91,NW,315,0.0,-999.0,55,0.00,,,0.00,Wunderground v.1.15,2013-10-28 02:35:00,
2013-10-27 21:40:00,53.5,37.7,29.91,NW,315,0.0,-999.0,55,0.00,,,0.00,Wunderground v.1.15,2013-10-28 02:40:00,
2013-10-27 21:45:00,52.2,37.4,29.92,NW,315,2.0,-999.0,57,0.00,,,0.00,Wunderground v.1.15,2013-10-28 02:45:00,
2013-10-27 21:50:00,52.2,37.4,29.92,NW,315,2.0,-999.0,57,0.00,,,0.00,Wunderground v.1.15,2013-10-28 02:50:00,
2013-10-27 21:55:00,52.2,37.4,29.92,NW,315,2.0,-999.0,57,0.00,,,0.00,Wunderground v.1.15,2013-10-28 02:55:00,
2013-10-27 22:00:00,52.2,37.4,29.92,NW,315,2.0,-999.0,57,0.00,,,0.00,Wunderground v.1.15,2013-10-28 03:00:00,
2013-10-27 22:05:00,52.2,37.4,29.92,NW,315,2.0,-999.0,57,0.00,,,0.00,Wunderground v.1.15,2013-10-28 03:05:00,
2013-10-27 22:10:00,52.2,37.4,29.92,NW,315,2.0,-999.0,57,0.00,,,0.00,Wunderground v.1.15,2013-10-28 03:10:00,
2013-10-27 22:15:00,53.0,38.2,29.93,NW,315,4.0,-999.0,57,0.00,,,0.00,Wunderground v.1.15,2013-10-28 03:15:00,
2013-10-27 22:20:00,53.0,38.2,29.93,NW,315,4.0,-999.0,57,0.00,,,0.00,Wunderground v.1.15,2013-10-28 03:20:00,
2013-10-27 22:25:00,53.0,38.2,29.93,NW,315,4.0,-999.0,57,0.00,,,0.00,Wunderground v.1.15,2013-10-28 03:25:00,
2013-10-27 22:30:00,53.0,38.2,29.93,NW,315,4.0,-999.0,57,0.00,,,0.00,Wunderground v.1.15,2013-10-28 03:30:00,
2013-10-27 22:35:00,53.0,38.2,29.93,NW,315,4.0,-999.0,57,0.00,,,0.00,Wunderground v.1.15,2013-10-28 03:35:00,
2013-10-27 22:40:00,53.0,38.2,29.93,NW,315,4.0,-999.0,57,0.00,,,0.00,Wunderground v.1.15,2013-10-28 03:40:00,
2013-10-27 22:45:00,52.1,39.1,29.96,ENE,68,5.0,-999.0,61,0.00,,,0.00,Wunderground v.1.15,2013-10-28 03:45:00,
2013-10-27 22:50:00,52.1,39.1,29.96,ENE,68,5.0,-999.0,61,0.00,,,0.00,Wunderground v.1.15,2013-10-28 03:50:00,
2013-10-27 22:55:00,52.1,39.1,29.96,ENE,68,5.0,-999.0,61,0.00,,,0.00,Wunderground v.1.15,2013-10-28 03:55:00,
2013-10-27 23:00:00,52.1,39.1,29.96,ENE,68,5.0,-999.0,61,0.00,,,0.00,Wunderground v.1.15,2013-10-28 04:00:00,
2013-10-27 23:05:00,52.8,39.7,29.96,ENE,70,5.0,5.0,61,0.00,,,0.00,Wunderground v.1.15,2013-10-28 04:05:00,
2013-10-27 23:10:00,52.1,39.1,29.96,ENE,68,5.0,-999.0,61,0.00,,,0.00,Wunderground v.1.15,2013-10-28 04:10:00,
2013-10-27 23:15:00,53.5,39.9,29.96,ENE,68,6.0,9.0,60,0.00,,,0.00,Wunderground v.1.15,2013-10-28 04:15:00,
2013-10-27 23:20:00,53.5,39.9,29.96,NE,48,7.0,7.0,60,0.00,,,0.00,Wunderground v.1.15,2013-10-28 04:20:00,
2013-10-27 23:25:00,53.3,39.8,29.96,NE,56,7.0,7.0,60,0.00,,,0.00,Wunderground v.1.15,2013-10-28 04:25:00,
2013-10-27 23:30:00,53.1,39.6,29.96,ENE,57,7.0,11.0,60,0.00,,,0.00,Wunderground v.1.15,2013-10-28 04:30:00,
2013-10-27 23:35:00,52.9,39.8,29.96,ENE,61,7.0,11.0,61,0.00,,,0.00,Wunderground v.1.15,2013-10-28 04:35:00,
2013-10-27 23:40:00,52.6,39.5,29.96,NE,52,7.0,9.0,61,0.00,,,0.00,Wunderground v.1.15,2013-10-28 04:40:00,
2013-10-27 23:45:00,52.4,39.8,29.96,ENE,78,7.0,9.0,62,0.00,,,0.00,Wunderground v.1.15,2013-10-28 04:45:00,
2013-10-27 23:50:00,51.9,39.3,29.96,NE,45,8.0,-999.0,62,0.00,,,0.00,Wunderground v.1.15,2013-10-28 04:50:00,
2013-10-27 23:55:00,52.1,39.5,29.96,ENE,61,8.0,10.0,62,0.00,,,0.00,Wunderground v.1.15,2013-10-28 04:55:00,